createdAt,value
2022-10-20T00:00:30.101Z,15
2022-10-20T00:05:30.102Z,2.5
2022-10-20T00:10:30.109Z,20
2022-10-20T00:15:30.101Z,30
2022-10-20T00:20:30.117Z,40
2022-10-20T00:25:30.108Z,7.5
2022-10-20T00:30:30.111Z,25
2022-10-20T00:35:30.111Z,10
2022-10-20T00:40:30.112Z,22.5
2022-10-20T00:45:30.107Z,25
2022-10-20T00:50:30.109Z,12.5
2022-10-20T00:55:30.109Z,27.5
2022-10-20T01:00:30.135Z,27.5
2022-10-20T01:05:30.106Z,32.5
2022-10-20T01:10:30.113Z,12.5
2022-10-20T01:15:30.106Z,10
2022-10-20T01:20:30.104Z,5
2022-10-20T01:25:30.106Z,37.5
2022-10-20T01:30:30.101Z,30
2022-10-20T01:35:30.111Z,15
2022-10-20T01:40:30.109Z,40
2022-10-20T01:45:30.107Z,27.5
2022-10-20T01:50:30.112Z,32.5
2022-10-20T01:55:30.105Z,5
2022-10-20T02:00:30.118Z,25
2022-10-20T02:05:30.112Z,42.5
2022-10-20T02:10:30.117Z,42.5
2022-10-20T02:15:30.120Z,2.5
2022-10-20T02:20:30.115Z,25
2022-10-20T02:25:30.110Z,27.5
2022-10-20T02:30:30.110Z,35
2022-10-20T02:35:30.110Z,22.5
2022-10-20T02:40:30.108Z,30
2022-10-20T02:45:30.108Z,22.5
2022-10-20T02:50:30.113Z,27.5
2022-10-20T02:55:30.115Z,30
2022-10-20T03:00:30.111Z,20
2022-10-20T03:05:30.109Z,20
2022-10-20T03:10:30.102Z,12.5
2022-10-20T03:15:30.111Z,32.5
2022-10-20T03:20:30.118Z,50
2022-10-20T03:25:30.118Z,27.5
2022-10-20T03:30:30.112Z,40
2022-10-20T03:35:30.111Z,32.5
2022-10-20T03:40:30.111Z,32.5
2022-10-20T03:45:30.112Z,25
2022-10-20T03:50:30.118Z,10
2022-10-20T03:55:30.111Z,37.5
2022-10-20T04:00:30.111Z,10
2022-10-20T04:05:30.116Z,15
2022-10-20T04:10:30.119Z,42.5
2022-10-20T04:15:30.115Z,57.5
2022-10-20T04:20:30.123Z,40
2022-10-20T04:25:30.109Z,20
2022-10-20T04:30:30.113Z,5
2022-10-20T04:35:30.117Z,90
2022-10-20T04:40:30.107Z,52.5
2022-10-20T04:45:30.121Z,25
2022-10-20T04:50:30.118Z,50
2022-10-20T04:55:30.137Z,32.5
2022-10-20T05:00:30.122Z,32.5
2022-10-20T05:05:30.125Z,30
2022-10-20T05:10:33.105Z,32.5
2022-10-20T05:15:30.120Z,30
2022-10-20T05:20:33.498Z,30
2022-10-20T05:25:36.379Z,27.5
2022-10-20T05:30:30.192Z,27.5
2022-10-20T05:35:30.119Z,47.5
2022-10-20T05:40:30.121Z,20
2022-10-20T05:45:30.116Z,35
2022-10-20T05:50:30.102Z,32.5
2022-10-20T05:55:30.113Z,17.5
2022-10-20T06:00:30.280Z,37.5
2022-10-20T06:05:30.113Z,32.5
2022-10-20T06:10:30.107Z,45
2022-10-20T06:15:30.120Z,22.5
2022-10-20T06:20:30.102Z,25
2022-10-20T06:25:30.104Z,12.5
2022-10-20T06:30:30.121Z,12.5
2022-10-20T06:35:30.109Z,32.5
2022-10-20T06:40:30.117Z,35
2022-10-20T06:45:30.106Z,37.5
2022-10-20T06:50:30.125Z,55
2022-10-20T06:55:30.110Z,345
2022-10-20T07:05:30.129Z,52.5
2022-10-20T07:10:30.115Z,10
2022-10-20T07:15:30.108Z,55
2022-10-20T07:20:30.111Z,55
2022-10-20T07:25:30.113Z,55
2022-10-20T07:30:30.107Z,55
2022-10-20T07:35:30.119Z,62.5
2022-10-20T07:40:30.114Z,60
2022-10-20T07:45:30.114Z,70
2022-10-20T07:50:30.116Z,50
2022-10-20T07:55:38.422Z,67.5
2022-10-20T08:00:30.154Z,55
2022-10-20T08:05:30.108Z,55
2022-10-20T08:10:30.123Z,62.5
2022-10-20T08:15:30.118Z,75
2022-10-20T08:20:30.146Z,60
2022-10-20T08:25:30.124Z,90
2022-10-20T08:30:30.115Z,80
2022-10-20T08:35:30.112Z,87.5
2022-10-20T08:40:30.122Z,95
2022-10-20T08:45:31.857Z,115
2022-10-20T08:50:30.111Z,107.5
2022-10-20T08:55:30.107Z,110
2022-10-20T09:00:30.114Z,115
2022-10-20T09:05:30.120Z,115
2022-10-20T09:10:30.123Z,117.5
2022-10-20T09:15:30.115Z,117.5
2022-10-20T09:20:30.126Z,117.5
2022-10-20T09:25:30.117Z,110
2022-10-20T09:30:30.117Z,110
2022-10-20T09:35:30.097Z,105
2022-10-20T09:40:30.143Z,117.5
2022-10-20T09:45:30.114Z,112.5
2022-10-20T09:50:30.127Z,117.5
2022-10-20T09:55:30.107Z,122.5
2022-10-20T10:00:37.052Z,100
2022-10-20T10:05:30.106Z,102.5
2022-10-20T10:10:30.121Z,85
2022-10-20T10:15:30.110Z,115
2022-10-20T10:20:30.114Z,115
2022-10-20T10:25:30.101Z,127.5
2022-10-20T10:30:30.114Z,85
2022-10-20T10:35:30.113Z,120
2022-10-20T10:40:30.126Z,130
2022-10-20T10:45:30.118Z,120
2022-10-20T10:50:30.118Z,127.5
2022-10-20T10:55:47.616Z,122.5
2022-10-20T11:00:30.203Z,130
2022-10-20T11:05:30.112Z,125
2022-10-20T11:10:30.121Z,117.5
2022-10-20T11:15:30.112Z,140
2022-10-20T11:20:30.103Z,162.5
2022-10-20T11:25:30.120Z,130
2022-10-20T11:30:30.121Z,150
2022-10-20T11:35:30.113Z,140
2022-10-20T11:40:30.126Z,167.5
2022-10-20T11:45:30.097Z,135
2022-10-20T11:50:30.106Z,105
2022-10-20T11:55:30.103Z,157.5
2022-10-20T12:00:30.119Z,140
2022-10-20T12:05:30.105Z,165
2022-10-20T12:10:30.112Z,172.5
2022-10-20T12:15:30.102Z,150
2022-10-20T12:20:30.119Z,130
2022-10-20T12:25:30.104Z,125
2022-10-20T12:30:30.115Z,120
2022-10-20T12:35:30.138Z,130
2022-10-20T12:40:30.114Z,120
2022-10-20T12:45:30.108Z,120
2022-10-20T12:50:30.119Z,120
2022-10-20T13:00:30.183Z,152.5
2022-10-20T13:05:30.120Z,152.5
2022-10-20T13:10:30.117Z,115
2022-10-20T13:15:30.124Z,157.5
2022-10-20T13:20:30.109Z,125
2022-10-20T13:25:30.101Z,160
2022-10-20T13:30:30.120Z,130
2022-10-20T13:35:30.108Z,115
2022-10-20T13:40:31.067Z,117.5
2022-10-20T13:45:30.106Z,120
2022-10-20T13:50:30.108Z,190
2022-10-20T13:55:30.110Z,190
2022-10-20T14:00:30.211Z,145
2022-10-20T14:05:30.106Z,182.5
2022-10-20T14:10:30.119Z,145
2022-10-20T14:15:30.113Z,140
2022-10-20T14:20:30.139Z,100
2022-10-20T14:25:30.108Z,107.5
2022-10-20T14:30:30.106Z,115
2022-10-20T14:35:30.110Z,117.5
2022-10-20T14:40:30.119Z,105
2022-10-20T14:45:30.110Z,190
2022-10-20T14:50:30.105Z,180
2022-10-20T14:55:30.120Z,85
2022-10-20T15:00:30.110Z,77.5
2022-10-20T15:05:30.109Z,102.5
2022-10-20T15:10:30.128Z,77.5
2022-10-20T15:15:30.109Z,97.5
2022-10-20T15:20:30.121Z,52.5
2022-10-20T15:25:30.107Z,75
2022-10-20T15:30:30.317Z,72.5
2022-10-20T15:35:30.120Z,55
2022-10-20T15:40:30.121Z,107.5
2022-10-20T15:45:30.121Z,340
2022-10-20T15:50:30.112Z,10
2022-10-20T15:55:30.121Z,347.5
2022-10-20T16:00:30.109Z,45
2022-10-20T16:05:30.115Z,35
2022-10-20T16:10:30.113Z,10
2022-10-20T16:15:30.352Z,42.5
2022-10-20T16:20:30.114Z,42.5
2022-10-20T16:25:30.098Z,87.5
2022-10-20T16:30:30.118Z,55
2022-10-20T16:35:30.109Z,35
2022-10-20T16:40:30.119Z,20
2022-10-20T16:45:30.115Z,12.5
2022-10-20T16:50:30.120Z,15
2022-10-20T16:55:30.103Z,15
2022-10-20T17:00:30.117Z,15
2022-10-20T17:05:30.109Z,15
2022-10-20T17:10:30.129Z,85
2022-10-20T17:15:30.115Z,85
2022-10-20T17:20:30.115Z,312.5
2022-10-20T17:25:30.100Z,315
2022-10-20T17:30:30.105Z,17.5
2022-10-20T17:35:30.116Z,17.5
2022-10-20T17:40:30.108Z,5
2022-10-20T17:45:31.944Z,310
2022-10-20T17:50:30.111Z,310
2022-10-20T17:55:30.103Z,315
2022-10-20T18:00:44.174Z,317.5
2022-10-20T18:05:30.109Z,315
2022-10-20T18:10:30.118Z,330
2022-10-20T18:15:30.106Z,350
2022-10-20T18:20:30.943Z,350
2022-10-20T18:25:30.126Z,95
2022-10-20T18:30:30.106Z,85
2022-10-20T18:35:30.112Z,345
2022-10-20T18:40:30.115Z,7.5
2022-10-20T18:45:30.109Z,302.5
2022-10-20T18:50:30.122Z,322.5
2022-10-20T18:55:30.114Z,322.5
2022-10-20T19:00:30.125Z,322.5
2022-10-20T19:05:30.097Z,320
2022-10-20T19:10:30.123Z,320
2022-10-20T19:15:30.104Z,317.5
2022-10-20T19:20:30.121Z,322.5
2022-10-20T19:25:30.100Z,307.5
2022-10-20T19:30:30.111Z,335
2022-10-20T19:35:30.108Z,340
2022-10-20T19:40:30.113Z,285
2022-10-20T19:45:30.118Z,285
2022-10-20T19:50:30.109Z,285
2022-10-20T19:55:30.107Z,120
2022-10-20T20:00:30.122Z,70
2022-10-20T20:05:30.115Z,82.5
2022-10-20T20:10:30.115Z,95
2022-10-20T20:15:30.104Z,170
2022-10-20T20:20:30.113Z,175
2022-10-20T20:25:30.102Z,117.5
2022-10-20T20:30:30.108Z,112.5
2022-10-20T20:35:30.132Z,110
2022-10-20T20:40:30.118Z,187.5
2022-10-20T20:45:30.121Z,155
2022-10-20T20:50:30.111Z,135
2022-10-20T20:55:30.116Z,130
2022-10-20T21:00:30.105Z,175
2022-10-20T21:05:30.115Z,197.5
2022-10-20T21:10:30.116Z,207.5
2022-10-20T21:15:30.111Z,122.5
2022-10-20T21:20:30.114Z,175
2022-10-20T21:25:30.107Z,160
2022-10-20T21:35:30.103Z,175
2022-10-20T21:40:30.122Z,177.5
2022-10-20T21:45:30.108Z,177.5
2022-10-20T21:50:30.125Z,180
2022-10-20T21:55:30.103Z,180
2022-10-20T22:00:30.114Z,177.5
2022-10-20T22:05:30.110Z,167.5
2022-10-20T22:10:30.127Z,165
2022-10-20T22:15:30.100Z,172.5
2022-10-20T22:20:30.116Z,165
2022-10-20T22:25:30.105Z,187.5
2022-10-20T22:30:30.123Z,175
2022-10-20T22:35:30.101Z,200
2022-10-20T22:40:30.111Z,200
2022-10-20T22:45:30.105Z,205
2022-10-20T22:50:30.130Z,205
2022-10-20T22:55:30.118Z,195
2022-10-20T23:00:30.125Z,180
2022-10-20T23:05:30.115Z,122.5
2022-10-20T23:10:30.112Z,160
2022-10-20T23:15:30.109Z,175
2022-10-20T23:20:30.123Z,170
2022-10-20T23:25:30.153Z,145
2022-10-20T23:30:30.104Z,192.5
2022-10-20T23:35:30.112Z,180
2022-10-20T23:40:30.122Z,195
2022-10-20T23:45:30.934Z,185
2022-10-20T23:50:30.122Z,197.5
2022-10-20T23:55:30.118Z,255
